createdAt,value
2022-10-15T00:00:08.228Z,13.90
2022-10-15T00:02:35.275Z,13.90
2022-10-15T00:05:01.995Z,13.91
2022-10-15T00:07:29.135Z,13.89
2022-10-15T00:09:56.628Z,13.90
2022-10-15T00:12:23.096Z,13.91
2022-10-15T00:14:49.582Z,13.86
2022-10-15T00:17:16.035Z,13.88
2022-10-15T00:19:42.464Z,13.85
2022-10-15T00:22:08.950Z,13.89
2022-10-15T00:24:36.770Z,13.90
2022-10-15T00:27:03.543Z,13.86
2022-10-15T00:29:29.966Z,13.85
2022-10-15T00:31:56.650Z,13.81
2022-10-15T00:34:23.171Z,13.75
2022-10-15T00:36:50.641Z,13.70
2022-10-15T00:39:19.858Z,13.69
2022-10-15T00:41:47.082Z,13.77
2022-10-15T00:44:26.709Z,13.71
2022-10-15T00:47:04.318Z,13.68
2022-10-15T00:49:34.727Z,13.70
2022-10-15T00:52:04.264Z,13.70
2022-10-15T00:54:34.308Z,13.65
2022-10-15T00:57:01.074Z,13.67
2022-10-15T00:59:28.523Z,13.63
2022-10-15T01:01:55.472Z,13.63
2022-10-15T01:04:23.059Z,13.67
2022-10-15T01:06:49.869Z,13.65
2022-10-15T01:09:16.538Z,13.67
2022-10-15T01:11:49.016Z,13.61
2022-10-15T01:14:22.760Z,13.58
2022-10-15T01:16:53.598Z,13.61
2022-10-15T01:19:32.910Z,13.58
2022-10-15T01:22:10.753Z,13.55
2022-10-15T01:24:50.739Z,13.61
2022-10-15T01:27:18.951Z,13.54
2022-10-15T01:30:14.581Z,13.60
2022-10-15T01:33:05.139Z,13.54
2022-10-15T01:35:46.447Z,13.62
2022-10-15T01:38:25.260Z,13.51
2022-10-15T01:40:56.611Z,13.50
2022-10-15T01:43:28.967Z,13.48
2022-10-15T01:45:58.925Z,13.50
2022-10-15T01:48:27.808Z,13.51
2022-10-15T01:50:57.598Z,13.45
2022-10-15T01:53:26.792Z,13.46
2022-10-15T01:56:06.631Z,13.48
2022-10-15T01:58:35.523Z,13.40
2022-10-15T02:01:02.044Z,13.44
2022-10-15T02:03:28.595Z,13.43
2022-10-15T02:06:04.411Z,13.46
2022-10-15T02:08:34.007Z,13.47
2022-10-15T02:11:07.727Z,13.44
2022-10-15T02:14:00.901Z,13.43
2022-10-15T02:17:10.104Z,13.45
2022-10-15T02:19:43.581Z,13.46
2022-10-15T02:22:24.093Z,13.47
2022-10-15T02:24:58.197Z,13.49
2022-10-15T02:27:26.735Z,13.42
2022-10-15T02:29:53.513Z,13.35
2022-10-15T02:32:21.977Z,13.31
2022-10-15T02:34:49.632Z,13.32
2022-10-15T02:37:17.569Z,13.39
2022-10-15T02:39:44.063Z,13.41
2022-10-15T02:42:10.642Z,13.36
2022-10-15T02:44:37.083Z,13.44
2022-10-15T02:47:03.938Z,13.43
2022-10-15T02:49:30.368Z,13.38
2022-10-15T02:51:57.312Z,13.47
2022-10-15T02:54:23.767Z,13.44
2022-10-15T02:56:50.256Z,13.43
2022-10-15T02:59:18.447Z,13.51
2022-10-15T03:01:44.879Z,13.52
2022-10-15T03:04:12.324Z,13.49
2022-10-15T03:06:38.834Z,13.50
2022-10-15T03:09:05.462Z,13.36
2022-10-15T03:11:31.968Z,13.43
2022-10-15T03:13:58.580Z,13.43
2022-10-15T03:16:25.070Z,13.45
2022-10-15T03:18:51.705Z,13.43
2022-10-15T03:21:18.216Z,13.48
2022-10-15T03:23:44.867Z,13.55
2022-10-15T03:26:11.345Z,13.49
2022-10-15T03:28:37.826Z,13.50
2022-10-15T03:31:04.596Z,13.55
2022-10-15T03:33:31.071Z,13.47
2022-10-15T03:35:57.589Z,13.43
2022-10-15T03:38:24.088Z,13.44
2022-10-15T03:40:50.620Z,13.48
2022-10-15T03:43:17.168Z,13.49
2022-10-15T03:45:43.614Z,13.42
2022-10-15T03:48:10.161Z,13.50
2022-10-15T03:50:36.734Z,13.49
2022-10-15T03:53:04.997Z,13.54
2022-10-15T03:55:32.081Z,13.54
2022-10-15T03:57:58.507Z,13.48
2022-10-15T04:00:25.102Z,13.56
2022-10-15T04:02:51.516Z,13.57
2022-10-15T04:05:18.005Z,13.61
2022-10-15T04:07:44.446Z,13.59
2022-10-15T04:10:11.033Z,13.62
2022-10-15T04:12:37.462Z,13.61
2022-10-15T04:15:05.277Z,13.67
2022-10-15T04:17:31.663Z,13.67
2022-10-15T04:19:58.195Z,13.64
2022-10-15T04:22:25.180Z,13.68
2022-10-15T04:24:51.855Z,13.71
2022-10-15T04:27:18.346Z,13.70
2022-10-15T04:29:47.795Z,13.71
2022-10-15T04:32:17.412Z,13.73
2022-10-15T04:34:45.604Z,13.75
2022-10-15T04:37:12.092Z,13.71
2022-10-15T04:39:38.817Z,13.61
2022-10-15T04:42:05.433Z,13.61
2022-10-15T04:44:31.973Z,13.68
2022-10-15T04:46:58.445Z,13.63
2022-10-15T04:49:24.948Z,13.59
2022-10-15T04:51:51.365Z,13.60
2022-10-15T04:54:17.979Z,13.60
2022-10-15T04:56:44.386Z,13.63
2022-10-15T04:59:10.991Z,13.61
2022-10-15T05:01:37.429Z,13.54
2022-10-15T05:04:04.049Z,13.66
2022-10-15T05:06:32.508Z,13.63
2022-10-15T05:08:58.929Z,13.61
2022-10-15T05:11:27.310Z,13.57
2022-10-15T05:13:57.713Z,13.62
2022-10-15T05:16:26.719Z,13.67
2022-10-15T05:18:56.693Z,13.71
2022-10-15T05:21:23.293Z,13.71
2022-10-15T05:23:50.392Z,13.69
2022-10-15T05:26:19.638Z,13.65
2022-10-15T05:28:46.202Z,13.60
2022-10-15T05:31:18.591Z,13.54
2022-10-15T05:33:46.745Z,13.58
2022-10-15T05:36:18.347Z,13.48
2022-10-15T05:38:50.085Z,13.49
2022-10-15T05:41:16.855Z,13.50
2022-10-15T05:43:45.923Z,13.56
2022-10-15T05:46:12.589Z,13.55
2022-10-15T05:48:39.003Z,13.54
2022-10-15T05:51:07.815Z,13.57
2022-10-15T05:53:34.501Z,13.60
2022-10-15T05:56:01.438Z,13.54
2022-10-15T05:58:32.080Z,13.53
2022-10-15T06:01:04.488Z,13.54
2022-10-15T06:03:31.295Z,13.51
2022-10-15T06:05:57.939Z,13.47
2022-10-15T06:08:24.415Z,13.57
2022-10-15T06:10:51.037Z,13.63
2022-10-15T06:13:17.691Z,13.49
2022-10-15T06:15:45.825Z,13.55
2022-10-15T06:18:15.704Z,13.57
2022-10-15T06:20:43.564Z,13.53
2022-10-15T06:23:11.420Z,13.64
2022-10-15T06:25:38.145Z,13.69
2022-10-15T06:28:05.980Z,13.84
2022-10-15T06:30:32.393Z,13.95
2022-10-15T06:32:58.911Z,14.04
2022-10-15T06:35:26.954Z,14.10
2022-10-15T06:37:53.622Z,14.05
2022-10-15T06:40:20.155Z,14.15
2022-10-15T06:42:46.590Z,14.35
2022-10-15T06:45:15.792Z,14.17
2022-10-15T06:47:44.613Z,14.19
2022-10-15T06:50:12.091Z,14.26
2022-10-15T06:52:39.135Z,14.36
2022-10-15T06:55:06.054Z,14.42
2022-10-15T06:57:32.472Z,14.40
2022-10-15T06:59:58.911Z,14.47
2022-10-15T07:02:25.575Z,14.52
2022-10-15T07:04:52.413Z,14.63
2022-10-15T07:07:18.879Z,14.67
2022-10-15T07:09:46.782Z,14.81
2022-10-15T07:12:13.618Z,14.79
2022-10-15T07:14:42.352Z,14.94
2022-10-15T07:17:09.204Z,14.91
2022-10-15T07:19:35.649Z,14.93
2022-10-15T07:22:02.080Z,15.19
2022-10-15T07:24:28.622Z,15.25
2022-10-15T07:26:54.980Z,15.36
2022-10-15T07:29:21.407Z,15.37
2022-10-15T07:31:47.796Z,15.61
2022-10-15T07:34:14.376Z,15.62
2022-10-15T07:36:41.036Z,15.53
2022-10-15T07:39:08.415Z,15.79
2022-10-15T07:41:34.843Z,15.79
2022-10-15T07:44:01.422Z,16.21
2022-10-15T07:46:28.043Z,16.65
2022-10-15T07:48:54.451Z,16.48
2022-10-15T07:51:20.918Z,16.75
2022-10-15T07:53:47.472Z,16.93
2022-10-15T07:56:15.361Z,16.94
2022-10-15T07:58:42.926Z,17.17
2022-10-15T08:01:10.620Z,17.21
2022-10-15T08:03:37.821Z,17.05
2022-10-15T08:06:06.649Z,17.23
2022-10-15T08:08:34.080Z,16.95
2022-10-15T08:11:14.592Z,16.96
2022-10-15T08:13:43.883Z,16.97
2022-10-15T08:16:12.308Z,16.65
2022-10-15T08:18:39.605Z,16.82
2022-10-15T08:21:07.772Z,16.69
2022-10-15T08:23:34.766Z,16.61
2022-10-15T08:26:02.078Z,16.73
2022-10-15T08:28:29.207Z,16.84
2022-10-15T08:31:02.586Z,16.79
2022-10-15T08:33:31.934Z,16.89
2022-10-15T08:35:58.583Z,16.89
2022-10-15T08:38:25.407Z,17.19
2022-10-15T08:40:53.972Z,17.29
2022-10-15T08:43:41.340Z,17.08
2022-10-15T08:48:49.679Z,16.59
2022-10-15T08:51:21.967Z,16.66
2022-10-15T08:53:55.292Z,16.51
2022-10-15T08:56:28.654Z,16.50
2022-10-15T08:59:23.522Z,16.63
2022-10-15T09:01:57.411Z,16.63
2022-10-15T09:07:07.630Z,16.66
2022-10-15T09:09:47.191Z,16.57
2022-10-15T09:12:43.879Z,16.67
2022-10-15T09:15:13.455Z,16.57
2022-10-15T09:17:41.641Z,16.78
2022-10-15T09:20:16.376Z,16.95
2022-10-15T09:22:42.845Z,17.07
2022-10-15T09:25:18.104Z,17.32
2022-10-15T09:27:47.548Z,17.41
2022-10-15T09:30:28.769Z,17.43
2022-10-15T09:33:00.352Z,17.48
2022-10-15T09:35:53.155Z,17.52
2022-10-15T09:38:35.466Z,17.50
2022-10-15T09:41:17.201Z,17.48
2022-10-15T09:43:49.832Z,17.19
2022-10-15T09:46:16.385Z,17.07
2022-10-15T09:48:50.509Z,17.27
2022-10-15T09:51:40.718Z,17.46
2022-10-15T09:54:49.404Z,17.86
2022-10-15T09:57:17.450Z,17.84
2022-10-15T10:00:01.081Z,18.37
2022-10-15T10:02:29.387Z,18.82
2022-10-15T10:04:56.481Z,18.65
2022-10-15T10:07:34.892Z,18.60
2022-10-15T10:10:07.677Z,18.59
2022-10-15T10:12:35.734Z,18.74
2022-10-15T10:15:09.700Z,18.66
2022-10-15T10:17:36.196Z,18.78
2022-10-15T10:20:16.253Z,18.93
2022-10-15T10:22:49.040Z,18.84
2022-10-15T10:25:27.399Z,18.85
2022-10-15T10:27:55.290Z,18.72
2022-10-15T10:30:22.011Z,18.62
2022-10-15T10:32:48.690Z,18.63
2022-10-15T10:35:23.557Z,18.73
2022-10-15T10:37:50.703Z,18.45
2022-10-15T10:40:34.795Z,18.41
2022-10-15T10:43:38.205Z,18.50
2022-10-15T10:46:17.619Z,18.44
2022-10-15T10:48:49.334Z,18.39
2022-10-15T10:51:20.002Z,18.46
2022-10-15T10:53:57.647Z,18.36
2022-10-15T10:56:37.723Z,18.22
2022-10-15T10:59:15.471Z,18.18
2022-10-15T11:01:42.024Z,18.24
2022-10-15T11:04:15.558Z,17.99
2022-10-15T11:07:09.525Z,17.83
2022-10-15T11:09:45.044Z,17.80
2022-10-15T11:12:22.511Z,17.82
2022-10-15T11:15:24.440Z,18.02
2022-10-15T11:18:08.386Z,18.25
2022-10-15T11:20:58.674Z,18.17
2022-10-15T11:23:41.210Z,18.26
2022-10-15T11:26:37.169Z,18.29
2022-10-15T11:29:32.732Z,18.17
2022-10-15T11:32:18.634Z,18.05
2022-10-15T11:35:08.199Z,18.35
2022-10-15T11:37:49.364Z,18.55
2022-10-15T11:40:22.510Z,18.58
2022-10-15T11:43:00.232Z,18.39
2022-10-15T11:45:39.579Z,18.49
2022-10-15T11:48:11.571Z,18.67
2022-10-15T11:50:57.654Z,18.66
2022-10-15T11:53:49.959Z,18.89
2022-10-15T11:56:36.394Z,18.95
2022-10-15T11:59:25.656Z,18.84
2022-10-15T12:01:59.922Z,19.01
2022-10-15T12:04:43.881Z,18.90
2022-10-15T12:07:23.198Z,18.97
2022-10-15T12:09:57.864Z,19.25
2022-10-15T12:12:46.707Z,18.96
2022-10-15T12:15:32.150Z,19.07
2022-10-15T12:18:17.669Z,19.46
2022-10-15T12:20:45.556Z,19.34
2022-10-15T12:23:36.581Z,19.61
2022-10-15T12:26:26.910Z,19.63
2022-10-15T12:28:59.609Z,19.28
2022-10-15T12:31:49.336Z,18.82
2022-10-15T12:34:29.911Z,19.09
2022-10-15T12:37:05.235Z,19.08
2022-10-15T12:39:52.149Z,18.88
2022-10-15T12:42:38.602Z,18.75
2022-10-15T12:45:08.286Z,18.65
2022-10-15T12:47:54.977Z,18.72
2022-10-15T12:50:26.856Z,18.97
2022-10-15T12:53:24.473Z,18.88
2022-10-15T12:56:15.259Z,19.18
2022-10-15T12:58:43.926Z,19.50
2022-10-15T13:01:13.444Z,19.80
2022-10-15T13:03:52.587Z,19.76
2022-10-15T13:06:22.275Z,20.11
2022-10-15T13:09:09.863Z,20.58
2022-10-15T13:11:56.398Z,21.14
2022-10-15T13:14:39.561Z,22.17
2022-10-15T13:17:17.255Z,23.45
2022-10-15T13:19:58.024Z,23.84
2022-10-15T13:22:29.851Z,24.42
2022-10-15T13:24:56.680Z,24.76
2022-10-15T13:27:26.633Z,25.17
2022-10-15T13:30:06.578Z,24.67
2022-10-15T13:32:40.180Z,24.31
2022-10-15T13:35:12.220Z,24.39
2022-10-15T13:37:40.361Z,24.29
2022-10-15T13:40:08.526Z,24.67
2022-10-15T13:42:35.596Z,24.59
2022-10-15T13:45:13.578Z,24.05
2022-10-15T13:47:42.869Z,23.40
2022-10-15T13:50:23.733Z,23.44
2022-10-15T13:52:57.479Z,23.69
2022-10-15T13:55:28.927Z,23.34
2022-10-15T13:58:14.163Z,23.08
2022-10-15T14:00:40.673Z,22.96
2022-10-15T14:03:08.941Z,23.16
2022-10-15T14:05:35.609Z,23.32
2022-10-15T14:08:02.002Z,23.22
2022-10-15T14:10:28.594Z,22.87
2022-10-15T14:12:55.006Z,22.84
2022-10-15T14:15:48.330Z,22.96
2022-10-15T14:18:16.772Z,23.03
2022-10-15T14:20:45.517Z,23.13
2022-10-15T14:23:24.757Z,23.22
2022-10-15T14:25:56.703Z,23.10
2022-10-15T14:28:24.296Z,22.56
2022-10-15T14:30:51.634Z,22.49
2022-10-15T14:33:30.294Z,22.75
2022-10-15T14:36:24.650Z,23.06
2022-10-15T14:38:53.570Z,23.30
2022-10-15T14:41:28.931Z,23.28
2022-10-15T14:44:11.831Z,23.30
2022-10-15T14:47:01.560Z,23.34
2022-10-15T14:49:31.083Z,23.03
2022-10-15T14:52:10.661Z,22.20
2022-10-15T14:54:41.452Z,21.98
2022-10-15T14:57:23.570Z,21.51
2022-10-15T14:59:52.647Z,21.68
2022-10-15T15:02:19.290Z,21.65
2022-10-15T15:04:53.225Z,21.61
2022-10-15T15:07:20.927Z,21.59
2022-10-15T15:09:48.787Z,21.26
2022-10-15T15:12:19.998Z,21.20
2022-10-15T15:14:48.252Z,21.19
2022-10-15T15:17:17.875Z,21.21
2022-10-15T15:19:44.321Z,20.89
2022-10-15T15:22:12.294Z,20.88
2022-10-15T15:24:38.929Z,20.63
2022-10-15T15:27:05.574Z,20.57
2022-10-15T15:29:31.918Z,20.30
2022-10-15T15:31:58.291Z,20.19
2022-10-15T15:34:24.715Z,20.07
2022-10-15T15:36:51.331Z,20.12
2022-10-15T15:39:17.723Z,19.90
2022-10-15T15:41:44.106Z,19.84
2022-10-15T15:44:13.600Z,19.75
2022-10-15T15:46:40.000Z,19.68
2022-10-15T15:49:06.415Z,19.61
2022-10-15T15:51:32.907Z,19.54
2022-10-15T15:53:59.444Z,19.38
2022-10-15T15:56:25.849Z,19.39
2022-10-15T15:58:52.510Z,19.36
2022-10-15T16:01:19.757Z,19.46
2022-10-15T16:03:46.446Z,19.29
2022-10-15T16:06:13.958Z,19.26
2022-10-15T16:08:40.344Z,19.27
2022-10-15T16:11:06.806Z,19.15
2022-10-15T16:13:33.487Z,19.11
2022-10-15T16:15:59.852Z,19.09
2022-10-15T16:18:26.248Z,19.03
2022-10-15T16:20:52.930Z,18.97
2022-10-15T16:23:19.320Z,18.83
2022-10-15T16:25:45.795Z,18.75
2022-10-15T16:28:12.197Z,18.72
2022-10-15T16:30:38.654Z,18.70
2022-10-15T16:33:09.938Z,18.63
2022-10-15T16:35:36.505Z,18.74
2022-10-15T16:38:02.923Z,18.80
2022-10-15T16:40:29.506Z,18.72
2022-10-15T16:42:55.900Z,18.72
2022-10-15T16:45:22.272Z,18.64
2022-10-15T16:47:49.240Z,18.70
2022-10-15T16:50:15.813Z,18.61
2022-10-15T16:52:42.216Z,18.66
2022-10-15T16:55:08.987Z,18.52
2022-10-15T16:57:35.784Z,18.49
2022-10-15T17:00:02.234Z,18.54
2022-10-15T17:02:28.807Z,18.53
2022-10-15T17:04:55.286Z,18.47
2022-10-15T17:07:21.891Z,18.44
2022-10-15T17:12:19.684Z,18.37
2022-10-15T17:14:50.737Z,18.28
2022-10-15T17:17:17.252Z,18.42
2022-10-15T17:19:43.616Z,18.47
2022-10-15T17:22:09.982Z,18.53
2022-10-15T17:24:36.388Z,18.35
2022-10-15T17:27:07.158Z,18.23
2022-10-15T17:29:33.976Z,18.17
2022-10-15T17:32:01.012Z,18.19
2022-10-15T17:34:28.034Z,18.11
2022-10-15T17:36:55.985Z,18.05
2022-10-15T17:39:22.581Z,17.91
2022-10-15T17:41:50.288Z,17.78
2022-10-15T17:44:16.691Z,17.65
2022-10-15T17:46:43.117Z,17.43
2022-10-15T17:49:11.095Z,17.14
2022-10-15T17:51:37.573Z,17.02
2022-10-15T17:54:05.455Z,16.79
2022-10-15T17:56:35.794Z,16.62
2022-10-15T17:59:05.015Z,16.47
2022-10-15T18:01:57.365Z,16.40
2022-10-15T18:04:25.287Z,16.35
2022-10-15T18:06:52.143Z,16.22
2022-10-15T18:09:18.795Z,16.06
2022-10-15T18:11:48.260Z,16.07
2022-10-15T18:14:14.935Z,15.96
2022-10-15T18:16:41.324Z,15.97
2022-10-15T18:19:08.026Z,15.86
2022-10-15T18:21:35.018Z,15.86
2022-10-15T18:24:01.530Z,15.82
2022-10-15T18:26:27.998Z,15.87
2022-10-15T18:28:54.717Z,15.86
2022-10-15T18:31:22.249Z,15.77
2022-10-15T18:33:51.941Z,15.59
2022-10-15T18:36:29.026Z,15.44
2022-10-15T18:38:56.068Z,15.40
2022-10-15T18:41:30.671Z,15.37
2022-10-15T18:44:02.527Z,15.34
2022-10-15T18:46:29.568Z,15.21
2022-10-15T18:48:56.048Z,15.13
2022-10-15T18:51:25.166Z,15.23
2022-10-15T18:53:52.136Z,15.21
2022-10-15T18:56:19.828Z,15.21
2022-10-15T18:58:46.659Z,15.20
2022-10-15T19:01:33.701Z,15.11
2022-10-15T19:04:03.038Z,15.06
2022-10-15T19:06:32.149Z,15.10
2022-10-15T19:09:02.839Z,15.00
2022-10-15T19:11:29.477Z,15.06
2022-10-15T19:13:57.108Z,14.99
2022-10-15T19:16:23.744Z,15.01
2022-10-15T19:18:50.321Z,15.11
2022-10-15T19:21:16.923Z,15.04
2022-10-15T19:23:43.343Z,15.09
2022-10-15T19:26:11.007Z,15.12
2022-10-15T19:28:41.637Z,15.08
2022-10-15T19:31:09.965Z,14.98
2022-10-15T19:33:37.712Z,15.03
2022-10-15T19:36:04.733Z,14.91
2022-10-15T19:38:31.234Z,14.91
2022-10-15T19:41:02.566Z,14.91
2022-10-15T19:43:28.951Z,14.92
2022-10-15T19:45:55.371Z,14.95
2022-10-15T19:48:22.971Z,14.95
2022-10-15T19:50:49.550Z,15.00
2022-10-15T19:53:17.035Z,15.07
2022-10-15T19:55:55.817Z,15.05
2022-10-15T19:58:22.750Z,15.00
2022-10-15T20:00:50.018Z,14.97
2022-10-15T20:03:16.465Z,14.90
2022-10-15T20:05:44.040Z,15.00
2022-10-15T20:08:11.305Z,14.98
2022-10-15T20:10:44.747Z,15.03
2022-10-15T20:13:12.026Z,15.00
2022-10-15T20:15:42.835Z,15.04
2022-10-15T20:18:09.526Z,15.02
2022-10-15T20:20:40.280Z,15.06
2022-10-15T20:23:06.999Z,15.03
2022-10-15T20:25:33.580Z,15.02
2022-10-15T20:28:00.045Z,15.02
2022-10-15T20:30:27.651Z,14.96
2022-10-15T20:32:54.108Z,14.94
2022-10-15T20:35:20.741Z,14.86
2022-10-15T20:37:47.504Z,14.82
2022-10-15T20:40:14.178Z,14.79
2022-10-15T20:42:41.237Z,14.85
2022-10-15T20:45:11.272Z,14.93
2022-10-15T20:47:41.260Z,15.08
2022-10-15T20:50:13.926Z,15.13
2022-10-15T20:52:41.642Z,15.17
2022-10-15T20:55:09.548Z,15.16
2022-10-15T20:57:36.546Z,15.35
2022-10-15T21:00:05.702Z,15.41
2022-10-15T21:02:32.156Z,15.50
2022-10-15T21:04:58.633Z,15.52
2022-10-15T21:07:25.081Z,15.44
2022-10-15T21:09:51.857Z,15.44
2022-10-15T21:12:18.590Z,15.45
2022-10-15T21:14:45.459Z,15.53
2022-10-15T21:17:12.418Z,15.72
2022-10-15T21:19:38.819Z,15.59
2022-10-15T21:22:05.342Z,15.51
2022-10-15T21:24:34.460Z,15.51
2022-10-15T21:27:01.500Z,15.51
2022-10-15T21:29:28.217Z,15.57
2022-10-15T21:31:54.994Z,15.63
2022-10-15T21:34:23.008Z,15.54
2022-10-15T21:36:49.458Z,15.58
2022-10-15T21:39:16.297Z,15.73
2022-10-15T21:41:42.809Z,15.69
2022-10-15T21:44:09.212Z,15.86
2022-10-15T21:46:35.936Z,15.97
2022-10-15T21:49:03.446Z,15.91
2022-10-15T21:51:31.921Z,15.95
2022-10-15T21:53:58.787Z,16.11
2022-10-15T21:56:25.496Z,16.06
2022-10-15T21:58:52.318Z,16.02
2022-10-15T22:01:31.160Z,16.02
2022-10-15T22:04:00.460Z,16.08
2022-10-15T22:06:27.382Z,16.08
2022-10-15T22:08:54.067Z,16.07
2022-10-15T22:11:24.037Z,16.12
2022-10-15T22:13:55.316Z,16.02
2022-10-15T22:16:22.968Z,16.05
2022-10-15T22:18:49.451Z,16.00
2022-10-15T22:21:22.062Z,15.93
2022-10-15T22:24:18.286Z,15.84
2022-10-15T22:26:47.484Z,15.86
2022-10-15T22:29:20.078Z,15.91
2022-10-15T22:31:46.679Z,15.80
2022-10-15T22:34:13.343Z,15.97
2022-10-15T22:36:39.967Z,15.92
2022-10-15T22:39:07.637Z,15.86
2022-10-15T22:41:36.832Z,15.98
2022-10-15T22:44:03.429Z,15.96
2022-10-15T22:46:37.465Z,15.89
2022-10-15T22:49:05.117Z,15.80
2022-10-15T22:51:32.061Z,15.80
2022-10-15T22:54:00.002Z,15.94
2022-10-15T22:56:28.945Z,15.83
2022-10-15T22:58:56.925Z,15.84
2022-10-15T23:01:28.947Z,15.74
2022-10-15T23:03:57.891Z,15.76
2022-10-15T23:06:25.784Z,15.78
2022-10-15T23:08:52.264Z,15.81
2022-10-15T23:11:30.957Z,15.89
2022-10-15T23:14:05.467Z,15.84
2022-10-15T23:16:38.046Z,15.89
2022-10-15T23:19:14.201Z,15.75
2022-10-15T23:21:44.556Z,15.66
2022-10-15T23:24:12.358Z,15.57
2022-10-15T23:26:40.303Z,15.50
2022-10-15T23:29:11.074Z,15.37
2022-10-15T23:31:37.713Z,15.37
2022-10-15T23:34:05.477Z,15.25
2022-10-15T23:36:34.099Z,15.33
2022-10-15T23:39:03.744Z,15.39
2022-10-15T23:41:30.980Z,15.35
2022-10-15T23:43:57.746Z,15.38
2022-10-15T23:46:24.334Z,15.42
2022-10-15T23:48:50.764Z,15.31
2022-10-15T23:51:28.801Z,15.33
2022-10-15T23:53:56.914Z,15.43
2022-10-15T23:56:23.903Z,15.31
2022-10-15T23:58:51.795Z,15.43
